createdAt,value
2023-01-01T00:02:00.993Z,11.40
2023-01-01T00:04:28.861Z,13.60
2023-01-01T00:06:55.301Z,14.20
2023-01-01T00:09:40.408Z,11.57
2023-01-01T00:12:06.947Z,11.55
2023-01-01T00:14:33.340Z,12.25
2023-01-01T00:16:59.795Z,10.40
2023-01-01T00:19:26.243Z,10.07
2023-01-01T00:21:52.752Z,11.02
2023-01-01T00:24:19.125Z,14.07
2023-01-01T00:26:45.816Z,14.13
2023-01-01T00:29:12.200Z,10.38
2023-01-01T00:31:38.746Z,9.13
2023-01-01T00:34:05.218Z,8.68
2023-01-01T00:36:31.690Z,7.45
2023-01-01T00:38:58.086Z,9.38
2023-01-01T00:41:24.515Z,12.23
2023-01-01T00:43:50.967Z,14.00
2023-01-01T00:46:17.482Z,10.05
2023-01-01T00:48:44.022Z,8.40
2023-01-01T00:51:12.166Z,10.05
2023-01-01T00:53:38.583Z,9.30
2023-01-01T00:56:06.481Z,17.38
2023-01-01T00:58:33.077Z,11.48
2023-01-01T01:01:00.307Z,8.55
2023-01-01T01:03:30.232Z,11.15
2023-01-01T01:06:09.724Z,7.75
2023-01-01T01:08:37.799Z,13.93
2023-01-01T01:11:09.537Z,9.90
2023-01-01T01:13:36.286Z,12.43
2023-01-01T01:16:11.992Z,11.30
2023-01-01T01:18:38.462Z,15.25
2023-01-01T01:21:05.677Z,15.95
2023-01-01T01:23:33.049Z,12.52
2023-01-01T01:26:13.359Z,13.90
2023-01-01T01:28:45.372Z,13.52
2023-01-01T01:31:15.699Z,14.52
2023-01-01T01:33:46.101Z,14.50
2023-01-01T01:36:12.791Z,10.77
2023-01-01T01:38:39.399Z,17.40
2023-01-01T01:41:05.827Z,15.77
2023-01-01T01:43:32.088Z,14.23
2023-01-01T01:46:05.263Z,14.52
2023-01-01T01:48:35.109Z,13.45
2023-01-01T01:51:01.506Z,14.95
2023-01-01T01:53:30.046Z,12.35
2023-01-01T01:56:00.046Z,11.80
2023-01-01T01:58:27.915Z,13.82
2023-01-01T02:00:55.611Z,15.70
2023-01-01T02:03:26.349Z,13.57
2023-01-01T02:05:53.140Z,10.85
2023-01-01T02:08:19.634Z,11.60
2023-01-01T02:10:46.011Z,11.43
2023-01-01T02:13:12.679Z,13.73
2023-01-01T02:15:51.098Z,9.10
2023-01-01T02:18:23.349Z,12.30
2023-01-01T02:20:59.906Z,9.63
2023-01-01T02:23:55.405Z,15.05
2023-01-01T02:26:38.671Z,10.45
2023-01-01T02:29:11.740Z,9.43
2023-01-01T02:31:43.513Z,13.13
2023-01-01T02:34:12.799Z,12.43
2023-01-01T02:36:44.302Z,11.40
2023-01-01T02:39:10.850Z,14.30
2023-01-01T02:41:40.122Z,13.60
2023-01-01T02:46:33.582Z,11.35
2023-01-01T02:49:06.260Z,10.40
2023-01-01T02:51:55.710Z,11.45
2023-01-01T02:54:31.337Z,14.88
2023-01-01T02:57:22.471Z,12.23
2023-01-01T03:00:19.395Z,12.05
2023-01-01T03:03:13.383Z,10.85
2023-01-01T03:06:07.397Z,8.50
2023-01-01T03:08:58.385Z,12.50
2023-01-01T03:11:32.070Z,8.15
2023-01-01T03:14:07.716Z,6.97
2023-01-01T03:16:44.981Z,9.30
2023-01-01T03:19:17.310Z,7.90
2023-01-01T03:21:57.559Z,7.60
2023-01-01T03:24:32.795Z,7.55
2023-01-01T03:27:02.689Z,7.82
2023-01-01T03:29:32.161Z,10.55
2023-01-01T03:31:59.489Z,8.38
2023-01-01T03:34:33.229Z,9.02
2023-01-01T03:37:00.904Z,6.28
2023-01-01T03:39:31.433Z,6.63
2023-01-01T03:42:05.849Z,7.82
2023-01-01T03:44:49.263Z,10.23
2023-01-01T03:47:16.053Z,7.43
2023-01-01T03:49:43.265Z,6.28
2023-01-01T03:52:16.958Z,5.85
2023-01-01T03:54:45.152Z,5.53
2023-01-01T03:57:34.316Z,7.15
2023-01-01T04:00:22.031Z,7.30
2023-01-01T04:02:59.961Z,5.63
2023-01-01T04:05:27.062Z,5.25
2023-01-01T04:07:53.764Z,5.43
2023-01-01T04:10:20.465Z,6.38
2023-01-01T04:12:55.744Z,6.13
2023-01-01T04:15:24.912Z,7.15
2023-01-01T04:17:51.578Z,9.80
2023-01-01T04:20:18.061Z,7.75
2023-01-01T04:22:44.756Z,7.57
2023-01-01T04:25:12.053Z,6.47
2023-01-01T04:27:39.010Z,5.90
2023-01-01T04:30:07.288Z,5.95
2023-01-01T04:32:34.330Z,4.45
2023-01-01T04:35:00.814Z,6.25
2023-01-01T04:37:27.373Z,4.53
2023-01-01T04:39:53.777Z,7.07
2023-01-01T04:42:20.165Z,4.68
2023-01-01T04:44:46.561Z,3.80
2023-01-01T04:47:12.939Z,5.65
2023-01-01T04:49:39.342Z,4.78
2023-01-01T04:52:06.128Z,3.88
2023-01-01T04:54:32.498Z,3.10
2023-01-01T04:56:58.878Z,5.47
2023-01-01T04:59:25.310Z,6.20
2023-01-01T05:01:51.776Z,5.05
2023-01-01T05:04:18.270Z,3.60
2023-01-01T05:06:44.671Z,6.38
2023-01-01T05:09:11.688Z,3.58
2023-01-01T05:11:38.134Z,3.30
2023-01-01T05:14:05.230Z,6.40
2023-01-01T05:16:37.127Z,5.80
2023-01-01T05:19:05.037Z,5.45
2023-01-01T05:21:33.807Z,3.20
2023-01-01T05:24:02.566Z,4.38
2023-01-01T05:26:33.124Z,4.75
2023-01-01T05:29:00.742Z,4.97
2023-01-01T05:31:29.410Z,4.22
2023-01-01T05:33:57.291Z,4.43
2023-01-01T05:36:26.660Z,4.15
2023-01-01T05:38:53.129Z,6.30
2023-01-01T05:41:20.040Z,5.53
2023-01-01T05:43:46.665Z,2.92
2023-01-01T05:46:16.663Z,8.32
2023-01-01T05:48:43.693Z,5.60
2023-01-01T05:51:15.898Z,7.57
2023-01-01T05:53:44.433Z,5.15
2023-01-01T05:56:12.017Z,2.63
2023-01-01T05:58:38.810Z,3.80
2023-01-01T06:01:09.933Z,6.20
2023-01-01T06:03:37.059Z,2.95
2023-01-01T06:06:08.062Z,3.05
2023-01-01T06:08:34.648Z,3.60
2023-01-01T06:11:06.370Z,6.50
2023-01-01T06:13:33.279Z,3.45
2023-01-01T06:16:01.013Z,5.07
2023-01-01T06:18:30.458Z,5.72
2023-01-01T06:21:05.941Z,2.88
2023-01-01T06:23:32.375Z,3.45
2023-01-01T06:26:04.918Z,5.20
2023-01-01T06:31:02.205Z,5.93
2023-01-01T06:33:29.545Z,4.05
2023-01-01T06:35:56.224Z,4.55
2023-01-01T06:38:22.663Z,4.40
2023-01-01T06:40:57.100Z,5.95
2023-01-01T06:43:23.518Z,4.72
2023-01-01T06:46:06.235Z,3.42
2023-01-01T06:51:14.704Z,7.03
2023-01-01T06:53:41.239Z,5.57
2023-01-01T06:56:08.365Z,4.82
2023-01-01T06:58:35.282Z,7.60
2023-01-01T07:01:08.553Z,7.45
2023-01-01T07:03:35.424Z,2.72
2023-01-01T07:06:01.849Z,5.20
2023-01-01T07:08:28.651Z,5.65
2023-01-01T07:10:57.332Z,7.13
2023-01-01T07:13:25.034Z,3.92
2023-01-01T07:15:51.472Z,5.80
2023-01-01T07:18:18.929Z,6.82
2023-01-01T07:20:49.795Z,4.97
2023-01-01T07:23:16.184Z,7.22
2023-01-01T07:25:42.740Z,6.10
2023-01-01T07:28:09.246Z,4.28
2023-01-01T07:30:35.698Z,4.78
2023-01-01T07:33:02.089Z,5.25
2023-01-01T07:35:28.592Z,4.30
2023-01-01T07:37:55.022Z,3.35
2023-01-01T07:40:21.415Z,2.40
2023-01-01T07:42:47.925Z,3.00
2023-01-01T07:45:14.328Z,4.50
2023-01-01T07:47:40.707Z,5.30
2023-01-01T07:50:07.287Z,3.88
2023-01-01T07:52:33.723Z,4.95
2023-01-01T07:55:00.139Z,7.05
2023-01-01T07:57:26.554Z,3.58
2023-01-01T07:59:52.936Z,8.55
2023-01-01T08:02:19.458Z,5.00
2023-01-01T08:04:45.979Z,4.25
2023-01-01T08:07:12.498Z,6.80
2023-01-01T08:09:38.899Z,5.70
2023-01-01T08:12:05.500Z,5.95
2023-01-01T08:14:31.897Z,5.25
2023-01-01T08:16:58.277Z,7.03
2023-01-01T08:19:24.639Z,6.60
2023-01-01T08:21:51.116Z,5.50
2023-01-01T08:24:17.522Z,5.05
2023-01-01T08:26:43.908Z,4.65
2023-01-01T08:29:11.349Z,3.92
2023-01-01T08:31:37.791Z,4.40
2023-01-01T08:34:04.289Z,7.05
2023-01-01T08:36:30.902Z,5.32
2023-01-01T08:38:58.514Z,5.25
2023-01-01T08:41:24.905Z,5.25
2023-01-01T08:43:51.377Z,6.35
2023-01-01T08:46:17.803Z,7.32
2023-01-01T08:48:44.440Z,3.78
2023-01-01T08:51:11.083Z,6.57
2023-01-01T08:53:37.541Z,7.60
2023-01-01T08:56:06.639Z,4.60
2023-01-01T08:58:34.049Z,5.80
2023-01-01T09:01:00.485Z,5.10
2023-01-01T09:03:27.281Z,6.78
2023-01-01T09:05:54.128Z,7.43
2023-01-01T09:08:21.307Z,6.03
2023-01-01T09:10:48.219Z,7.80
2023-01-01T09:13:16.828Z,5.75
2023-01-01T09:15:43.303Z,5.53
2023-01-01T09:18:10.554Z,6.50
2023-01-01T09:20:37.591Z,7.65
2023-01-01T09:23:06.139Z,5.28
2023-01-01T09:25:33.426Z,5.80
2023-01-01T09:28:05.507Z,5.38
2023-01-01T09:30:31.970Z,5.90
2023-01-01T09:32:58.367Z,4.88
2023-01-01T09:35:24.862Z,6.45
2023-01-01T09:37:51.228Z,8.80
2023-01-01T09:40:33.520Z,5.82
2023-01-01T09:43:18.176Z,12.02
2023-01-01T09:46:00.640Z,5.55
2023-01-01T09:48:30.180Z,5.45
2023-01-01T09:50:58.251Z,9.02
2023-01-01T09:53:41.555Z,7.25
2023-01-01T09:56:13.850Z,4.32
2023-01-01T09:58:40.363Z,8.15
2023-01-01T10:01:16.329Z,5.53
2023-01-01T10:03:54.073Z,5.85
2023-01-01T10:06:34.266Z,5.25
2023-01-01T10:09:13.367Z,5.97
2023-01-01T10:11:45.770Z,4.15
2023-01-01T10:14:25.432Z,5.80
2023-01-01T10:16:55.240Z,6.53
2023-01-01T10:19:37.925Z,6.05
2023-01-01T10:22:08.431Z,7.80
2023-01-01T10:24:52.090Z,6.57
2023-01-01T10:27:27.829Z,3.75
2023-01-01T10:29:59.598Z,6.82
2023-01-01T10:32:35.712Z,6.93
2023-01-01T10:35:14.900Z,4.70
2023-01-01T10:37:41.958Z,4.50
2023-01-01T10:40:17.741Z,9.07
2023-01-01T10:42:50.053Z,4.78
2023-01-01T10:45:19.731Z,6.22
2023-01-01T10:48:23.738Z,5.50
2023-01-01T10:51:01.167Z,8.32
2023-01-01T10:53:50.833Z,7.30
2023-01-01T10:56:19.563Z,8.10
2023-01-01T10:58:57.458Z,6.43
2023-01-01T11:01:29.143Z,7.88
2023-01-01T11:04:02.591Z,6.25
2023-01-01T11:06:34.285Z,10.30
2023-01-01T11:09:03.572Z,9.70
2023-01-01T11:11:41.914Z,10.43
2023-01-01T11:14:19.485Z,9.75
2023-01-01T11:16:46.543Z,6.97
2023-01-01T11:19:30.863Z,5.95
2023-01-01T11:21:57.442Z,8.07
2023-01-01T11:24:28.791Z,8.35
2023-01-01T11:27:12.287Z,5.43
2023-01-01T11:29:38.700Z,8.70
2023-01-01T11:32:07.604Z,8.32
2023-01-01T11:34:37.039Z,9.82
2023-01-01T11:37:27.949Z,10.50
2023-01-01T11:39:56.481Z,11.27
2023-01-01T11:42:26.358Z,10.90
2023-01-01T11:44:54.945Z,7.65
2023-01-01T11:47:35.647Z,9.68
2023-01-01T11:50:14.056Z,9.40
2023-01-01T11:52:46.360Z,10.60
2023-01-01T11:55:28.498Z,9.27
2023-01-01T11:58:21.921Z,8.18
2023-01-01T12:00:51.746Z,10.70
2023-01-01T12:03:26.743Z,10.85
2023-01-01T12:05:59.057Z,11.55
2023-01-01T12:08:35.354Z,11.30
2023-01-01T12:11:07.600Z,9.98
2023-01-01T12:13:44.127Z,13.40
2023-01-01T12:16:14.467Z,10.23
2023-01-01T12:18:47.398Z,10.82
2023-01-01T12:21:26.723Z,9.60
2023-01-01T12:23:53.156Z,16.98
2023-01-01T12:26:31.577Z,9.30
2023-01-01T12:29:16.313Z,11.45
2023-01-01T12:32:11.170Z,10.23
2023-01-01T12:34:49.338Z,10.18
2023-01-01T12:37:36.316Z,10.73
2023-01-01T12:40:29.479Z,11.50
2023-01-01T12:43:02.612Z,9.25
2023-01-01T12:45:51.900Z,10.35
2023-01-01T12:48:27.396Z,8.07
2023-01-01T12:51:05.167Z,10.02
2023-01-01T12:54:06.194Z,11.00
2023-01-01T12:56:46.380Z,9.13
2023-01-01T12:59:22.398Z,10.05
2023-01-01T13:01:49.230Z,9.73
2023-01-01T13:04:20.425Z,10.38
2023-01-01T13:07:03.754Z,8.25
2023-01-01T13:09:34.438Z,12.77
2023-01-01T13:12:12.591Z,10.95
2023-01-01T13:14:40.380Z,7.68
2023-01-01T13:17:21.345Z,8.82
2023-01-01T13:19:59.487Z,9.70
2023-01-01T13:22:25.777Z,9.57
2023-01-01T13:25:05.974Z,12.27
2023-01-01T13:27:57.411Z,9.90
2023-01-01T13:30:36.636Z,6.80
2023-01-01T13:33:27.531Z,7.10
2023-01-01T13:36:09.595Z,10.55
2023-01-01T13:38:49.111Z,12.60
2023-01-01T13:41:30.924Z,10.13
2023-01-01T13:43:59.988Z,7.77
2023-01-01T13:46:41.637Z,8.32
2023-01-01T13:49:22.950Z,10.52
2023-01-01T13:52:14.333Z,9.20
2023-01-01T13:55:05.810Z,10.30
2023-01-01T13:57:55.946Z,10.43
2023-01-01T14:00:32.994Z,11.10
2023-01-01T14:03:01.259Z,7.85
2023-01-01T14:05:38.442Z,7.15
2023-01-01T14:08:09.964Z,8.57
2023-01-01T14:10:39.435Z,9.05
2023-01-01T14:13:05.809Z,14.85
2023-01-01T14:15:34.341Z,6.53
2023-01-01T14:18:02.578Z,8.73
2023-01-01T14:20:55.380Z,11.60
2023-01-01T14:23:34.095Z,8.20
2023-01-01T14:26:09.997Z,9.10
2023-01-01T14:28:36.551Z,7.88
2023-01-01T14:31:10.799Z,6.13
2023-01-01T14:33:38.179Z,8.23
2023-01-01T14:36:06.425Z,11.32
2023-01-01T14:38:35.022Z,9.50
2023-01-01T14:41:17.908Z,7.20
2023-01-01T14:43:46.453Z,7.07
2023-01-01T14:46:17.672Z,6.72
2023-01-01T14:48:50.696Z,10.32
2023-01-01T14:51:20.891Z,7.07
2023-01-01T14:53:48.372Z,8.68
2023-01-01T14:56:26.228Z,9.95
2023-01-01T14:58:53.058Z,7.32
2023-01-01T15:01:24.888Z,13.13
2023-01-01T15:03:59.213Z,8.77
2023-01-01T15:06:25.906Z,11.93
2023-01-01T15:08:53.059Z,11.75
2023-01-01T15:11:24.982Z,10.45
2023-01-01T15:13:56.829Z,9.88
2023-01-01T15:16:24.020Z,9.93
2023-01-01T15:18:53.118Z,11.15
2023-01-01T15:21:31.476Z,11.20
2023-01-01T15:24:03.691Z,9.52
2023-01-01T15:26:33.584Z,9.77
2023-01-01T15:29:00.349Z,8.45
2023-01-01T15:31:59.976Z,9.00
2023-01-01T15:34:31.385Z,11.20
2023-01-01T15:37:08.936Z,10.32
2023-01-01T15:39:48.449Z,8.15
2023-01-01T15:42:24.138Z,7.65
2023-01-01T15:44:50.564Z,7.93
2023-01-01T15:47:17.395Z,11.15
2023-01-01T15:49:43.778Z,6.68
2023-01-01T15:52:22.519Z,7.57
2023-01-01T15:54:49.018Z,8.73
2023-01-01T15:57:21.662Z,6.53
2023-01-01T15:59:50.491Z,8.45
2023-01-01T16:02:20.595Z,9.55
2023-01-01T16:04:48.240Z,9.40
2023-01-01T16:07:17.427Z,9.98
2023-01-01T16:09:43.787Z,10.02
2023-01-01T16:12:10.167Z,9.98
2023-01-01T16:14:36.538Z,11.30
2023-01-01T16:17:03.035Z,5.25
2023-01-01T16:19:30.769Z,10.60
2023-01-01T16:21:57.252Z,9.10
2023-01-01T16:24:24.405Z,13.63
2023-01-01T16:26:50.997Z,10.73
2023-01-01T16:29:17.502Z,11.90
2023-01-01T16:31:44.683Z,8.10
2023-01-01T16:34:14.001Z,9.50
2023-01-01T16:36:40.538Z,8.73
2023-01-01T16:39:06.986Z,7.85
2023-01-01T16:41:33.363Z,7.95
2023-01-01T16:43:59.742Z,9.82
2023-01-01T16:46:27.807Z,8.75
2023-01-01T16:48:54.277Z,10.55
2023-01-01T16:51:25.069Z,9.45
2023-01-01T16:53:51.424Z,9.27
2023-01-01T16:56:18.002Z,7.00
2023-01-01T16:58:49.685Z,7.75
2023-01-01T17:01:18.018Z,8.82
2023-01-01T17:03:44.525Z,10.50
2023-01-01T17:06:11.051Z,12.15
2023-01-01T17:08:38.712Z,9.00
2023-01-01T17:11:13.817Z,8.75
2023-01-01T17:13:41.199Z,9.38
2023-01-01T17:16:08.238Z,10.68
2023-01-01T17:19:13.802Z,10.77
2023-01-01T17:21:21.538Z,8.68
2023-01-01T17:23:48.008Z,9.65
2023-01-01T17:26:19.136Z,8.15
2023-01-01T17:28:46.567Z,10.35
2023-01-01T17:31:15.081Z,9.45
2023-01-01T17:33:42.068Z,8.23
2023-01-01T17:36:10.305Z,8.40
2023-01-01T17:38:36.923Z,10.07
2023-01-01T17:41:07.290Z,9.75
2023-01-01T17:43:35.142Z,10.55
2023-01-01T17:46:13.280Z,9.88
2023-01-01T17:48:40.818Z,10.15
2023-01-01T17:51:07.495Z,10.55
2023-01-01T17:53:34.060Z,6.22
2023-01-01T17:56:00.608Z,7.22
2023-01-01T17:58:32.096Z,9.38
2023-01-01T18:01:10.782Z,7.15
2023-01-01T18:03:37.964Z,9.30
2023-01-01T18:06:04.675Z,8.75
2023-01-01T18:08:32.918Z,8.50
2023-01-01T18:10:59.796Z,6.03
2023-01-01T18:13:27.034Z,9.55
2023-01-01T18:15:53.493Z,8.35
2023-01-01T18:18:19.918Z,7.95
2023-01-01T18:20:46.289Z,7.97
2023-01-01T18:23:12.735Z,7.28
2023-01-01T18:25:39.121Z,9.48
2023-01-01T18:28:06.956Z,8.25
2023-01-01T18:30:33.331Z,10.75
2023-01-01T18:32:59.702Z,8.35
2023-01-01T18:35:26.050Z,8.70
2023-01-01T18:37:52.415Z,7.32
2023-01-01T18:40:19.490Z,10.75
2023-01-01T18:42:52.141Z,7.85
2023-01-01T18:45:20.484Z,7.20
2023-01-01T18:47:47.407Z,8.35
2023-01-01T18:50:26.434Z,7.35
2023-01-01T18:53:01.410Z,6.93
2023-01-01T18:55:28.105Z,6.35
2023-01-01T18:57:59.034Z,10.50
2023-01-01T19:00:27.576Z,6.88
2023-01-01T19:03:12.053Z,7.20
2023-01-01T19:05:38.561Z,10.50
2023-01-01T19:08:07.902Z,5.53
2023-01-01T19:10:40.437Z,6.57
2023-01-01T19:15:55.185Z,6.85
2023-01-01T19:18:23.576Z,5.85
2023-01-01T19:20:56.115Z,5.82
2023-01-01T19:25:50.534Z,6.28
2023-01-01T19:28:16.795Z,8.98
2023-01-01T19:30:46.122Z,7.10
2023-01-01T19:33:13.218Z,4.18
2023-01-01T19:35:39.680Z,7.20
2023-01-01T19:38:06.133Z,7.97
2023-01-01T19:40:32.712Z,8.20
2023-01-01T19:42:59.070Z,7.07
2023-01-01T19:45:25.547Z,7.10
2023-01-01T19:47:51.934Z,6.20
2023-01-01T19:50:21.059Z,5.70
2023-01-01T19:52:47.526Z,7.60
2023-01-01T19:55:13.955Z,9.05
2023-01-01T19:57:40.326Z,6.85
2023-01-01T20:00:07.390Z,7.65
2023-01-01T20:02:49.759Z,4.72
2023-01-01T20:05:16.456Z,9.82
2023-01-01T20:07:42.867Z,7.10
2023-01-01T20:10:09.528Z,7.10
2023-01-01T20:12:35.929Z,5.32
2023-01-01T20:15:02.329Z,6.03
2023-01-01T20:17:30.580Z,5.40
2023-01-01T20:19:57.032Z,5.60
2023-01-01T20:22:23.411Z,8.73
2023-01-01T20:24:49.799Z,9.10
2023-01-01T20:27:26.805Z,8.73
2023-01-01T20:29:54.081Z,7.35
2023-01-01T20:32:21.115Z,6.07
2023-01-01T20:34:47.537Z,7.13
2023-01-01T20:37:32.519Z,7.35
2023-01-01T20:39:58.880Z,7.95
2023-01-01T20:42:26.563Z,8.75
2023-01-01T20:44:52.939Z,7.03
2023-01-01T20:47:19.511Z,6.22
2023-01-01T20:49:45.867Z,7.15
2023-01-01T20:52:12.255Z,6.50
2023-01-01T20:54:40.311Z,6.78
2023-01-01T20:57:06.722Z,6.15
2023-01-01T20:59:36.353Z,7.38
2023-01-01T21:02:06.072Z,7.22
2023-01-01T21:04:32.975Z,5.13
2023-01-01T21:06:59.341Z,9.95
2023-01-01T21:09:25.704Z,8.68
2023-01-01T21:11:52.098Z,8.77
2023-01-01T21:14:19.857Z,8.40
2023-01-01T21:16:49.256Z,8.80
2023-01-01T21:19:24.344Z,8.90
2023-01-01T21:21:55.209Z,7.88
2023-01-01T21:24:25.590Z,8.60
2023-01-01T21:26:54.148Z,10.95
2023-01-01T21:29:23.088Z,7.82
2023-01-01T21:31:54.571Z,7.30
2023-01-01T21:34:43.609Z,5.80
2023-01-01T21:37:50.567Z,9.48
2023-01-01T21:40:40.473Z,9.25
2023-01-01T21:43:31.847Z,8.05
2023-01-01T21:46:07.353Z,9.02
2023-01-01T21:48:36.637Z,10.57
2023-01-01T21:51:13.328Z,8.77
2023-01-01T21:53:42.100Z,8.27
2023-01-01T21:56:22.143Z,9.40
2023-01-01T21:59:06.891Z,11.40
2023-01-01T22:01:41.496Z,10.43
2023-01-01T22:04:10.921Z,8.32
2023-01-01T22:06:39.561Z,7.43
2023-01-01T22:09:17.596Z,10.65
2023-01-01T22:11:45.355Z,7.70
2023-01-01T22:14:14.472Z,9.80
2023-01-01T22:16:41.142Z,10.43
2023-01-01T22:19:12.871Z,12.77
2023-01-01T22:21:40.155Z,7.90
2023-01-01T22:24:20.816Z,8.38
2023-01-01T22:26:47.224Z,9.07
2023-01-01T22:29:22.087Z,7.43
2023-01-01T22:31:49.484Z,9.85
2023-01-01T22:34:22.310Z,10.88
2023-01-01T22:36:48.792Z,10.70
2023-01-01T22:39:27.258Z,10.43
2023-01-01T22:41:53.628Z,12.48
2023-01-01T22:44:20.262Z,8.63
2023-01-01T22:46:46.642Z,7.07
2023-01-01T22:49:19.065Z,10.80
2023-01-01T22:51:46.486Z,11.93
2023-01-01T22:54:12.947Z,13.13
2023-01-01T22:56:39.438Z,7.13
2023-01-01T22:59:05.801Z,9.50
2023-01-01T23:01:32.250Z,10.45
2023-01-01T23:03:58.745Z,9.32
2023-01-01T23:06:25.274Z,13.18
2023-01-01T23:08:51.839Z,8.10
2023-01-01T23:11:18.740Z,9.23
2023-01-01T23:14:08.302Z,7.00
2023-01-01T23:16:35.035Z,11.43
2023-01-01T23:19:01.653Z,8.77
2023-01-01T23:21:29.488Z,10.90
2023-01-01T23:23:57.538Z,9.48
2023-01-01T23:26:25.227Z,7.95
2023-01-01T23:28:52.390Z,10.07
2023-01-01T23:31:24.803Z,13.30
2023-01-01T23:33:52.377Z,12.27
2023-01-01T23:36:18.816Z,6.63
2023-01-01T23:38:45.375Z,12.48
2023-01-01T23:41:11.790Z,10.18
2023-01-01T23:43:43.205Z,10.70
2023-01-01T23:46:10.754Z,9.35
2023-01-01T23:48:37.218Z,13.25
2023-01-01T23:51:03.714Z,10.00
2023-01-01T23:53:30.105Z,12.15
2023-01-01T23:55:56.910Z,9.13
2023-01-01T23:58:23.285Z,8.57
